createdAt,value
2022-11-05T00:02:34.394Z,16.07
2022-11-05T00:05:22.957Z,15.99
2022-11-05T00:08:20.528Z,15.91
2022-11-05T00:10:51.282Z,15.85
2022-11-05T00:13:39.925Z,15.76
2022-11-05T00:16:28.664Z,15.66
2022-11-05T00:19:11.267Z,15.59
2022-11-05T00:21:59.507Z,15.56
2022-11-05T00:24:48.188Z,15.50
2022-11-05T00:27:18.547Z,15.46
2022-11-05T00:29:48.448Z,15.43
2022-11-05T00:32:18.682Z,15.41
2022-11-05T00:34:48.618Z,15.39
2022-11-05T00:37:18.893Z,15.32
2022-11-05T00:39:49.009Z,15.22
2022-11-05T00:42:37.372Z,15.20
2022-11-05T00:45:08.588Z,15.14
2022-11-05T00:47:59.013Z,15.14
2022-11-05T00:50:29.647Z,15.08
2022-11-05T00:53:02.093Z,15.00
2022-11-05T00:55:42.229Z,14.91
2022-11-05T00:58:20.889Z,14.91
2022-11-05T01:00:57.020Z,14.87
2022-11-05T01:03:30.359Z,14.85
2022-11-05T01:06:07.752Z,14.77
2022-11-05T01:08:38.374Z,14.70
2022-11-05T01:11:35.098Z,14.67
2022-11-05T01:14:13.695Z,14.61
2022-11-05T01:16:44.697Z,14.63
2022-11-05T01:19:15.117Z,14.59
2022-11-05T01:21:45.475Z,14.53
2022-11-05T01:24:15.807Z,14.50
2022-11-05T01:26:45.685Z,14.40
2022-11-05T01:29:15.681Z,14.39
2022-11-05T01:31:45.696Z,14.33
2022-11-05T01:34:16.035Z,14.30
2022-11-05T01:36:46.172Z,14.28
2022-11-05T01:39:16.172Z,14.28
2022-11-05T01:41:46.135Z,14.22
2022-11-05T01:44:49.426Z,14.22
2022-11-05T01:47:43.828Z,14.13
2022-11-05T01:50:30.621Z,14.04
2022-11-05T01:53:24.595Z,14.02
2022-11-05T01:56:06.277Z,13.94
2022-11-05T01:58:42.192Z,13.89
2022-11-05T02:01:14.477Z,13.86
2022-11-05T02:03:46.674Z,13.86
2022-11-05T02:06:18.987Z,13.81
2022-11-05T02:09:11.989Z,13.72
2022-11-05T02:11:42.294Z,13.97
2022-11-05T02:14:12.295Z,14.29
2022-11-05T02:16:45.016Z,14.05
2022-11-05T02:19:33.558Z,14.04
2022-11-05T02:22:49.082Z,14.02
2022-11-05T02:25:19.219Z,13.97
2022-11-05T02:28:16.749Z,13.86
2022-11-05T02:31:01.979Z,13.89
2022-11-05T02:33:36.794Z,13.85
2022-11-05T02:36:34.077Z,13.79
2022-11-05T02:39:28.402Z,13.71
2022-11-05T02:42:13.318Z,13.70
2022-11-05T02:45:12.214Z,13.64
2022-11-05T02:47:45.369Z,13.58
2022-11-05T02:50:26.457Z,13.46
2022-11-05T02:53:34.589Z,13.40
2022-11-05T02:56:11.275Z,13.31
2022-11-05T02:58:41.564Z,13.31
2022-11-05T03:01:15.417Z,13.24
2022-11-05T03:03:50.106Z,13.26
2022-11-05T03:07:10.827Z,13.28
2022-11-05T03:09:49.811Z,13.26
2022-11-05T03:12:48.643Z,13.22
2022-11-05T03:15:39.013Z,13.13
2022-11-05T03:18:31.635Z,13.10
2022-11-05T03:21:07.133Z,13.03
2022-11-05T03:24:17.376Z,12.99
2022-11-05T03:27:06.474Z,12.91
2022-11-05T03:29:54.893Z,12.89
2022-11-05T03:32:27.680Z,12.85
2022-11-05T03:35:09.836Z,12.82
2022-11-05T03:37:43.528Z,12.82
2022-11-05T03:40:15.954Z,12.79
2022-11-05T03:42:50.963Z,12.78
2022-11-05T03:45:28.312Z,12.71
2022-11-05T03:48:02.140Z,12.73
2022-11-05T03:50:41.100Z,12.72
2022-11-05T03:53:18.669Z,12.71
2022-11-05T03:56:07.057Z,12.68
2022-11-05T03:58:42.062Z,12.66
2022-11-05T04:01:13.632Z,12.61
2022-11-05T04:03:44.189Z,12.55
2022-11-05T04:06:32.283Z,12.42
2022-11-05T04:09:20.373Z,12.41
2022-11-05T04:12:08.830Z,12.37
2022-11-05T04:14:40.617Z,12.31
2022-11-05T04:17:11.059Z,12.31
2022-11-05T04:20:01.495Z,12.28
2022-11-05T04:22:52.173Z,12.34
2022-11-05T04:25:24.091Z,12.25
2022-11-05T04:27:54.427Z,12.27
2022-11-05T04:30:24.516Z,12.28
2022-11-05T04:33:12.799Z,12.27
2022-11-05T04:35:47.854Z,12.18
2022-11-05T04:38:22.206Z,12.07
2022-11-05T04:40:52.434Z,12.07
2022-11-05T04:43:23.101Z,12.07
2022-11-05T04:45:54.167Z,12.10
2022-11-05T04:48:24.217Z,12.07
2022-11-05T04:50:54.050Z,12.01
2022-11-05T04:53:24.069Z,12.01
2022-11-05T04:55:54.778Z,11.95
2022-11-05T04:58:25.243Z,11.89
2022-11-05T05:00:55.144Z,11.86
2022-11-05T05:03:24.993Z,11.82
2022-11-05T05:05:57.185Z,11.79
2022-11-05T05:08:30.913Z,11.76
2022-11-05T05:11:09.330Z,11.76
2022-11-05T05:13:39.616Z,11.73
2022-11-05T05:16:12.874Z,11.67
2022-11-05T05:18:46.188Z,11.66
2022-11-05T05:21:36.508Z,11.65
2022-11-05T05:24:17.822Z,11.62
2022-11-05T05:26:52.589Z,11.59
2022-11-05T05:29:22.632Z,11.58
2022-11-05T05:31:52.532Z,11.56
2022-11-05T05:34:22.566Z,11.56
2022-11-05T05:36:52.848Z,11.53
2022-11-05T05:39:22.659Z,11.52
2022-11-05T05:41:52.890Z,11.49
2022-11-05T05:44:23.155Z,11.46
2022-11-05T05:46:56.674Z,11.42
2022-11-05T05:49:26.714Z,11.40
2022-11-05T05:51:57.929Z,11.40
2022-11-05T05:54:32.633Z,11.32
2022-11-05T05:57:04.352Z,11.32
2022-11-05T05:59:34.757Z,11.31
2022-11-05T06:02:05.057Z,11.29
2022-11-05T06:04:35.019Z,11.31
2022-11-05T06:07:04.867Z,11.28
2022-11-05T06:09:34.765Z,11.28
2022-11-05T06:12:04.933Z,11.26
2022-11-05T06:14:35.337Z,11.24
2022-11-05T06:17:05.136Z,11.24
2022-11-05T06:19:35.006Z,11.22
2022-11-05T06:22:04.837Z,11.21
2022-11-05T06:24:34.760Z,11.16
2022-11-05T06:27:04.649Z,11.14
2022-11-05T06:29:34.567Z,11.12
2022-11-05T06:32:04.977Z,11.12
2022-11-05T06:34:34.962Z,11.10
2022-11-05T06:37:05.074Z,11.04
2022-11-05T06:39:35.091Z,11.00
2022-11-05T06:42:18.276Z,10.95
2022-11-05T06:44:49.216Z,10.88
2022-11-05T06:47:20.436Z,10.91
2022-11-05T06:49:50.852Z,10.88
2022-11-05T06:52:20.799Z,10.87
2022-11-05T06:54:50.933Z,10.83
2022-11-05T06:57:20.778Z,10.84
2022-11-05T06:59:53.508Z,10.78
2022-11-05T07:02:25.822Z,10.78
2022-11-05T07:04:56.031Z,10.74
2022-11-05T07:07:25.879Z,10.70
2022-11-05T07:09:55.754Z,10.66
2022-11-05T07:12:25.626Z,10.64
2022-11-05T07:14:55.866Z,10.59
2022-11-05T07:17:26.323Z,10.59
2022-11-05T07:19:56.175Z,10.60
2022-11-05T07:22:26.057Z,10.63
2022-11-05T07:24:55.922Z,10.60
2022-11-05T07:27:26.054Z,10.64
2022-11-05T07:29:55.905Z,10.61
2022-11-05T07:32:26.107Z,10.57
2022-11-05T07:34:55.908Z,10.54
2022-11-05T07:37:25.772Z,10.54
2022-11-05T07:39:55.637Z,10.50
2022-11-05T07:42:25.502Z,10.52
2022-11-05T07:44:55.385Z,10.47
2022-11-05T07:47:25.252Z,10.43
2022-11-05T07:49:55.092Z,10.43
2022-11-05T07:52:24.960Z,10.37
2022-11-05T07:54:54.832Z,10.36
2022-11-05T07:57:24.779Z,10.37
2022-11-05T07:59:54.612Z,10.35
2022-11-05T08:02:24.775Z,10.29
2022-11-05T08:04:55.026Z,10.30
2022-11-05T08:07:25.139Z,10.32
2022-11-05T08:09:55.254Z,10.23
2022-11-05T08:12:25.066Z,10.19
2022-11-05T08:14:54.890Z,10.19
2022-11-05T08:17:24.866Z,10.19
2022-11-05T08:19:55.114Z,10.22
2022-11-05T08:22:24.975Z,10.17
2022-11-05T08:24:54.988Z,10.17
2022-11-05T08:27:24.911Z,10.15
2022-11-05T08:29:54.760Z,10.15
2022-11-05T08:32:25.021Z,10.09
2022-11-05T08:34:55.286Z,10.08
2022-11-05T08:37:25.245Z,10.03
2022-11-05T08:39:55.098Z,10.09
2022-11-05T08:42:24.964Z,10.08
2022-11-05T08:44:55.186Z,10.09
2022-11-05T08:47:26.322Z,10.10
2022-11-05T08:49:56.345Z,10.12
2022-11-05T08:52:26.206Z,10.10
2022-11-05T08:54:56.497Z,10.16
2022-11-05T08:57:26.460Z,10.20
2022-11-05T08:59:56.768Z,10.22
2022-11-05T09:02:26.669Z,10.37
2022-11-05T09:04:56.617Z,10.78
2022-11-05T09:07:26.541Z,11.12
2022-11-05T09:09:56.417Z,11.47
2022-11-05T09:12:27.317Z,11.79
2022-11-05T09:14:57.562Z,12.08
2022-11-05T09:17:27.436Z,12.35
2022-11-05T09:19:57.719Z,12.61
2022-11-05T09:22:27.672Z,12.89
2022-11-05T09:24:57.631Z,13.10
2022-11-05T09:27:27.801Z,13.23
2022-11-05T09:29:57.924Z,13.46
2022-11-05T09:32:27.785Z,13.74
2022-11-05T09:34:59.034Z,14.18
2022-11-05T09:37:30.470Z,14.29
2022-11-05T09:40:00.814Z,14.61
2022-11-05T09:42:47.286Z,14.91
2022-11-05T09:45:26.338Z,15.07
2022-11-05T09:48:05.899Z,15.46
2022-11-05T09:50:42.714Z,15.67
2022-11-05T09:53:18.837Z,16.04
2022-11-05T09:55:53.717Z,16.27
2022-11-05T09:58:39.741Z,16.32
2022-11-05T10:01:17.365Z,16.64
2022-11-05T10:03:52.503Z,16.98
2022-11-05T10:06:26.882Z,17.43
2022-11-05T10:09:08.482Z,17.66
2022-11-05T10:11:51.794Z,17.71
2022-11-05T10:14:41.793Z,17.91
2022-11-05T10:17:25.540Z,18.21
2022-11-05T10:20:02.217Z,18.57
2022-11-05T10:22:32.606Z,19.21
2022-11-05T10:25:02.633Z,19.22
2022-11-05T10:27:38.056Z,19.34
2022-11-05T10:30:09.191Z,19.54
2022-11-05T10:32:44.240Z,19.73
2022-11-05T10:35:19.842Z,19.75
2022-11-05T10:37:51.801Z,20.00
2022-11-05T10:40:41.408Z,20.34
2022-11-05T10:43:14.987Z,20.16
2022-11-05T10:46:05.481Z,20.17
2022-11-05T10:48:43.957Z,19.65
2022-11-05T10:51:15.779Z,20.06
2022-11-05T10:54:01.949Z,20.03
2022-11-05T10:56:37.712Z,19.98
2022-11-05T10:59:23.897Z,20.48
2022-11-05T11:02:23.125Z,20.55
2022-11-05T11:04:59.519Z,20.48
2022-11-05T11:07:29.765Z,20.51
2022-11-05T11:09:59.740Z,20.72
2022-11-05T11:12:41.075Z,21.25
2022-11-05T11:15:38.417Z,22.59
2022-11-05T11:18:28.514Z,22.82
2022-11-05T11:21:21.212Z,23.63
2022-11-05T11:24:07.647Z,24.06
2022-11-05T11:26:41.086Z,23.01
2022-11-05T11:29:31.794Z,21.73
2022-11-05T11:32:02.527Z,21.57
2022-11-05T11:34:36.421Z,22.14
2022-11-05T11:37:14.072Z,23.10
2022-11-05T11:39:54.059Z,23.93
2022-11-05T11:42:49.025Z,23.95
2022-11-05T11:45:33.268Z,23.83
2022-11-05T11:48:07.435Z,22.93
2022-11-05T11:50:40.810Z,24.03
2022-11-05T11:53:23.324Z,25.05
2022-11-05T11:56:00.619Z,25.51
2022-11-05T11:58:49.569Z,24.88
2022-11-05T12:01:36.619Z,24.63
2022-11-05T12:04:15.563Z,24.74
2022-11-05T12:06:55.017Z,23.69
2022-11-05T12:09:32.760Z,23.37
2022-11-05T12:12:10.095Z,23.65
2022-11-05T12:14:55.355Z,23.73
2022-11-05T12:17:37.889Z,24.20
2022-11-05T12:20:39.485Z,24.02
2022-11-05T12:23:32.559Z,24.29
2022-11-05T12:26:16.480Z,24.19
2022-11-05T12:29:23.334Z,24.27
2022-11-05T12:32:12.797Z,24.85
2022-11-05T12:35:01.409Z,26.71
2022-11-05T12:37:34.895Z,27.88
2022-11-05T12:40:15.015Z,28.43
2022-11-05T12:43:11.389Z,28.37
2022-11-05T12:45:55.054Z,28.32
2022-11-05T12:49:14.155Z,27.84
2022-11-05T12:51:58.779Z,27.94
2022-11-05T12:54:34.393Z,26.96
2022-11-05T12:57:06.268Z,26.49
2022-11-05T12:59:41.745Z,26.55
2022-11-05T13:02:35.743Z,26.38
2022-11-05T13:05:35.747Z,26.79
2022-11-05T13:08:44.468Z,28.35
2022-11-05T13:11:20.988Z,29.83
2022-11-05T13:14:21.079Z,29.25
2022-11-05T13:17:04.634Z,28.33
2022-11-05T13:19:49.901Z,28.08
2022-11-05T13:23:01.889Z,28.70
2022-11-05T13:25:40.456Z,30.30
2022-11-05T13:28:51.716Z,31.09
2022-11-05T13:31:29.297Z,30.74
2022-11-05T13:34:04.530Z,30.10
2022-11-05T13:37:08.708Z,29.76
2022-11-05T13:39:57.279Z,30.45
2022-11-05T13:42:49.760Z,31.78
2022-11-05T13:45:47.923Z,31.16
2022-11-05T13:48:39.164Z,30.60
2022-11-05T13:51:27.538Z,30.54
2022-11-05T13:54:12.861Z,30.16
2022-11-05T13:56:58.099Z,29.93
2022-11-05T13:59:47.946Z,29.28
2022-11-05T14:02:30.053Z,29.62
2022-11-05T14:05:02.656Z,29.62
2022-11-05T14:07:40.051Z,29.36
2022-11-05T14:10:23.315Z,29.31
2022-11-05T14:12:56.473Z,29.63
2022-11-05T14:15:31.549Z,29.87
2022-11-05T14:18:03.526Z,30.25
2022-11-05T14:20:33.506Z,30.14
2022-11-05T14:23:26.419Z,30.28
2022-11-05T14:25:58.319Z,30.71
2022-11-05T14:28:37.772Z,31.53
2022-11-05T14:31:40.971Z,30.55
2022-11-05T14:34:15.390Z,32.21
2022-11-05T14:36:47.881Z,31.77
2022-11-05T14:39:23.181Z,31.22
2022-11-05T14:41:59.074Z,30.92
2022-11-05T14:44:31.284Z,31.34
2022-11-05T14:47:09.933Z,31.47
2022-11-05T14:49:54.220Z,32.19
2022-11-05T14:52:25.154Z,32.60
2022-11-05T14:54:58.427Z,32.48
2022-11-05T14:57:44.951Z,31.77
2022-11-05T15:00:30.771Z,31.66
2022-11-05T15:03:03.456Z,33.53
2022-11-05T15:05:36.353Z,35.41
2022-11-05T15:08:33.906Z,33.37
2022-11-05T15:11:30.667Z,32.56
2022-11-05T15:14:20.112Z,33.21
2022-11-05T15:17:10.289Z,31.94
2022-11-05T15:19:43.909Z,32.19
2022-11-05T15:22:34.249Z,31.66
2022-11-05T15:25:06.627Z,33.02
2022-11-05T15:28:15.652Z,33.28
2022-11-05T15:31:07.698Z,31.90
2022-11-05T15:33:38.318Z,31.91
2022-11-05T15:36:19.446Z,32.75
2022-11-05T15:39:15.078Z,33.14
2022-11-05T15:41:40.776Z,32.14
2022-11-05T15:44:32.314Z,32.14
2022-11-05T15:47:13.983Z,33.33
2022-11-05T15:49:47.053Z,34.20
2022-11-05T15:52:20.341Z,33.61
2022-11-05T15:55:14.028Z,33.21
2022-11-05T15:57:51.245Z,34.49
2022-11-05T16:00:25.281Z,35.48
2022-11-05T16:03:17.080Z,33.89
2022-11-05T16:05:49.903Z,33.35
2022-11-05T16:08:25.458Z,30.55
2022-11-05T16:11:01.061Z,30.06
2022-11-05T16:13:35.402Z,28.75
2022-11-05T16:16:26.593Z,28.86
2022-11-05T16:18:56.682Z,28.15
2022-11-05T16:21:26.678Z,27.65
2022-11-05T16:23:59.892Z,26.99
2022-11-05T16:29:33.640Z,26.34
2022-11-05T16:32:14.819Z,26.13
2022-11-05T16:34:53.234Z,27.31
2022-11-05T16:37:26.021Z,30.78
2022-11-05T16:39:57.470Z,31.97
2022-11-05T16:42:38.149Z,32.19
2022-11-05T16:45:11.905Z,33.92
2022-11-05T16:47:43.293Z,35.37
2022-11-05T16:50:26.974Z,35.43
2022-11-05T16:52:57.802Z,34.01
2022-11-05T16:55:27.764Z,32.18
2022-11-05T16:57:57.957Z,28.87
2022-11-05T17:00:27.994Z,27.48
2022-11-05T17:02:58.699Z,27.77
2022-11-05T17:05:31.539Z,27.37
2022-11-05T17:08:02.499Z,27.44
2022-11-05T17:10:32.419Z,30.23
2022-11-05T17:13:02.755Z,30.60
2022-11-05T17:15:37.936Z,30.88
2022-11-05T17:18:08.316Z,32.75
2022-11-05T17:20:42.682Z,32.99
2022-11-05T17:23:17.728Z,32.28
2022-11-05T17:25:54.372Z,31.40
2022-11-05T17:28:27.195Z,31.39
2022-11-05T17:30:59.640Z,31.43
2022-11-05T17:33:30.774Z,31.20
2022-11-05T17:36:01.385Z,31.82
2022-11-05T17:38:31.682Z,30.95
2022-11-05T17:41:01.571Z,30.93
2022-11-05T17:43:31.455Z,31.76
2022-11-05T17:46:04.467Z,33.03
2022-11-05T17:48:35.331Z,33.48
2022-11-05T17:51:06.528Z,33.62
2022-11-05T17:53:36.895Z,33.24
2022-11-05T17:56:12.011Z,32.08
2022-11-05T17:58:42.783Z,31.41
2022-11-05T18:01:30.944Z,31.04
2022-11-05T18:04:07.210Z,30.75
2022-11-05T18:06:42.263Z,30.78
2022-11-05T18:09:13.303Z,30.37
2022-11-05T18:11:44.385Z,30.17
2022-11-05T18:14:17.663Z,30.14
2022-11-05T18:16:50.069Z,30.30
2022-11-05T18:19:20.011Z,30.88
2022-11-05T18:21:50.163Z,30.44
2022-11-05T18:24:20.554Z,29.92
2022-11-05T18:26:50.798Z,29.82
2022-11-05T18:29:21.105Z,29.52
2022-11-05T18:31:50.954Z,29.92
2022-11-05T18:34:21.190Z,29.76
2022-11-05T18:36:56.063Z,29.07
2022-11-05T18:39:27.735Z,28.26
2022-11-05T18:41:57.833Z,27.74
2022-11-05T18:44:28.794Z,28.35
2022-11-05T18:46:59.130Z,28.81
2022-11-05T18:49:29.657Z,29.32
2022-11-05T18:51:59.535Z,29.46
2022-11-05T18:54:29.727Z,29.38
2022-11-05T18:56:59.820Z,29.00
2022-11-05T18:59:37.568Z,28.17
2022-11-05T19:02:10.422Z,28.19
2022-11-05T19:04:50.503Z,27.78
2022-11-05T19:07:31.154Z,27.74
2022-11-05T19:10:01.051Z,27.65
2022-11-05T19:12:30.962Z,27.95
2022-11-05T19:15:02.705Z,27.95
2022-11-05T19:17:35.566Z,27.51
2022-11-05T19:20:07.325Z,27.29
2022-11-05T19:22:37.378Z,27.02
2022-11-05T19:25:08.071Z,26.96
2022-11-05T19:27:39.801Z,27.00
2022-11-05T19:30:10.663Z,27.14
2022-11-05T19:32:40.911Z,27.02
2022-11-05T19:35:11.159Z,26.90
2022-11-05T19:37:41.091Z,26.93
2022-11-05T19:40:11.877Z,26.78
2022-11-05T19:42:42.341Z,26.71
2022-11-05T19:48:03.069Z,26.51
2022-11-05T19:50:33.296Z,26.53
2022-11-05T19:53:04.250Z,26.44
2022-11-05T19:55:34.746Z,26.35
2022-11-05T19:58:04.624Z,26.29
2022-11-05T20:00:36.321Z,26.11
2022-11-05T20:03:06.865Z,26.16
2022-11-05T20:05:37.236Z,26.11
2022-11-05T20:08:07.991Z,25.94
2022-11-05T20:10:39.251Z,25.80
2022-11-05T20:13:09.545Z,25.80
2022-11-05T20:15:41.719Z,25.77
2022-11-05T20:18:12.706Z,25.66
2022-11-05T20:20:43.136Z,25.66
2022-11-05T20:23:13.408Z,25.62
2022-11-05T20:25:44.535Z,25.50
2022-11-05T20:28:15.390Z,25.42
2022-11-05T20:30:45.403Z,25.32
2022-11-05T20:33:15.253Z,25.28
2022-11-05T20:35:45.106Z,25.22
2022-11-05T20:38:15.548Z,25.18
2022-11-05T20:40:45.561Z,25.02
2022-11-05T20:43:15.755Z,24.92
2022-11-05T20:45:45.697Z,24.80
2022-11-05T20:48:15.856Z,24.68
2022-11-05T20:50:47.161Z,24.61
2022-11-05T20:53:17.593Z,24.57
2022-11-05T20:55:49.429Z,24.47
2022-11-05T20:58:19.703Z,24.23
2022-11-05T21:00:52.790Z,24.10
2022-11-05T21:03:23.926Z,23.86
2022-11-05T21:05:57.581Z,23.82
2022-11-05T21:08:30.418Z,23.75
2022-11-05T21:11:00.659Z,23.61
2022-11-05T21:13:31.528Z,23.47
2022-11-05T21:16:03.341Z,23.22
2022-11-05T21:18:35.125Z,23.07
2022-11-05T21:21:10.787Z,23.08
2022-11-05T21:23:42.891Z,22.93
2022-11-05T21:26:14.263Z,22.84
2022-11-05T21:28:43.743Z,22.74
2022-11-05T21:31:13.803Z,22.53
2022-11-05T21:33:43.854Z,22.41
2022-11-05T21:36:14.973Z,22.24
2022-11-05T21:38:45.475Z,22.11
2022-11-05T21:41:15.575Z,22.04
2022-11-05T21:43:46.183Z,21.85
2022-11-05T21:46:16.100Z,21.74
2022-11-05T21:48:46.091Z,21.56
2022-11-05T21:51:34.624Z,21.39
2022-11-05T21:54:22.803Z,21.19
2022-11-05T21:57:11.200Z,21.03
2022-11-05T21:59:50.894Z,20.88
2022-11-05T22:02:26.208Z,20.72
2022-11-05T22:04:58.765Z,20.57
2022-11-05T22:07:32.441Z,20.38
2022-11-05T22:10:03.163Z,20.24
2022-11-05T22:12:33.743Z,20.09
2022-11-05T22:15:04.206Z,19.97
2022-11-05T22:17:34.444Z,19.89
2022-11-05T22:20:04.387Z,19.76
2022-11-05T22:22:35.068Z,19.66
2022-11-05T22:25:05.584Z,19.58
2022-11-05T22:27:36.031Z,19.44
2022-11-05T22:30:07.141Z,19.32
2022-11-05T22:32:38.668Z,19.24
2022-11-05T22:35:09.173Z,19.11
2022-11-05T22:37:39.245Z,19.06
2022-11-05T22:40:11.719Z,18.90
2022-11-05T22:42:42.390Z,18.74
2022-11-05T22:45:12.486Z,18.63
2022-11-05T22:47:45.112Z,18.47
2022-11-05T22:50:15.564Z,18.43
2022-11-05T22:52:45.688Z,18.40
2022-11-05T22:55:15.595Z,18.36
2022-11-05T22:57:45.694Z,18.33
2022-11-05T23:00:20.898Z,18.28
2022-11-05T23:02:51.744Z,18.19
2022-11-05T23:05:21.909Z,18.05
2022-11-05T23:08:10.649Z,17.95
2022-11-05T23:10:59.753Z,17.84
2022-11-05T23:13:30.161Z,17.71
2022-11-05T23:16:29.390Z,17.61
2022-11-05T23:19:18.432Z,17.58
2022-11-05T23:22:06.700Z,17.54
2022-11-05T23:24:37.231Z,17.46
2022-11-05T23:27:07.711Z,17.37
2022-11-05T23:29:37.841Z,17.29
2022-11-05T23:32:25.970Z,17.18
2022-11-05T23:34:58.375Z,17.10
2022-11-05T23:38:00.253Z,17.03
2022-11-05T23:40:53.041Z,16.95
2022-11-05T23:43:41.478Z,16.83
2022-11-05T23:46:29.909Z,16.82
2022-11-05T23:49:00.349Z,16.76
2022-11-05T23:51:30.465Z,16.71
2022-11-05T23:54:00.409Z,16.64
2022-11-05T23:56:30.253Z,16.55
2022-11-05T23:59:00.225Z,16.51
